createdAt,value
2019-06-10T00:01:31.409Z,2.95
2019-06-10T00:04:02.607Z,4.10
2019-06-10T00:06:31.753Z,3.70
2019-06-10T00:09:03.125Z,3.77
2019-06-10T00:11:31.479Z,3.65
2019-06-10T00:14:02.762Z,3.42
2019-06-10T00:16:32.334Z,3.00
2019-06-10T00:19:03.877Z,2.50
2019-06-10T00:21:31.079Z,2.83
2019-06-10T00:24:02.579Z,2.52
2019-06-10T00:26:31.721Z,2.15
2019-06-10T00:29:02.738Z,2.90
2019-06-10T00:31:31.484Z,2.72
2019-06-10T00:34:02.978Z,2.50
2019-06-10T00:36:31.678Z,2.58
2019-06-10T00:39:02.474Z,2.80
2019-06-10T00:41:31.262Z,2.90
2019-06-10T00:44:03.414Z,2.67
2019-06-10T00:46:31.741Z,2.55
2019-06-10T00:49:02.971Z,2.33
2019-06-10T00:51:31.407Z,2.42
2019-06-10T00:54:03.311Z,2.58
2019-06-10T00:56:30.832Z,2.77
2019-06-10T00:59:02.006Z,2.50
2019-06-10T01:01:31.298Z,2.47
2019-06-10T01:04:01.919Z,2.25
2019-06-10T01:06:31.724Z,2.40
2019-06-10T01:09:02.638Z,3.08
2019-06-10T01:11:31.408Z,2.90
2019-06-10T01:14:01.480Z,2.80
2019-06-10T01:16:31.800Z,2.77
2019-06-10T01:19:21.681Z,3.00
2019-06-10T01:21:51.359Z,2.30
2019-06-10T01:24:19.392Z,2.60
2019-06-10T01:26:50.557Z,2.60
2019-06-10T01:29:21.080Z,2.33
2019-06-10T01:31:51.377Z,2.40
2019-06-10T01:34:21.682Z,2.70
2019-06-10T01:36:50.940Z,2.98
2019-06-10T01:39:19.713Z,2.60
2019-06-10T01:41:47.677Z,2.30
2019-06-10T01:44:16.435Z,2.40
2019-06-10T01:46:47.266Z,2.80
2019-06-10T01:49:16.775Z,2.67
2019-06-10T01:51:47.427Z,2.40
2019-06-10T01:54:17.107Z,2.70
2019-06-10T01:56:45.511Z,2.60
2019-06-10T01:59:15.437Z,2.58
2019-06-10T02:01:44.309Z,2.55
2019-06-10T02:04:14.976Z,2.20
2019-06-10T02:06:43.068Z,2.70
2019-06-10T02:09:15.078Z,2.60
2019-06-10T02:11:42.933Z,2.42
2019-06-10T02:14:14.714Z,2.30
2019-06-10T02:16:41.571Z,2.58
2019-06-10T02:19:13.789Z,2.58
2019-06-10T02:21:41.737Z,3.00
2019-06-10T02:24:12.801Z,2.95
2019-06-10T02:26:41.050Z,3.00
2019-06-10T02:29:11.619Z,2.85
2019-06-10T02:31:43.274Z,2.95
2019-06-10T02:34:14.868Z,3.15
2019-06-10T02:36:44.459Z,2.90
2019-06-10T02:39:17.312Z,2.90
2019-06-10T02:41:45.040Z,2.90
2019-06-10T02:44:20.977Z,2.80
2019-06-10T02:46:48.614Z,3.83
2019-06-10T02:49:29.969Z,3.80
2019-06-10T02:51:46.550Z,3.17
2019-06-10T02:54:18.045Z,3.52
2019-06-10T02:56:46.617Z,3.27
2019-06-10T02:59:16.698Z,3.10
2019-06-10T03:02:05.189Z,3.90
2019-06-10T03:04:37.681Z,3.17
2019-06-10T03:07:05.304Z,3.40
2019-06-10T03:09:35.653Z,3.35
2019-06-10T03:12:05.028Z,3.33
2019-06-10T03:14:34.418Z,3.00
2019-06-10T03:17:03.203Z,3.22
2019-06-10T03:19:44.116Z,3.17
2019-06-10T03:22:02.825Z,3.02
2019-06-10T03:24:32.784Z,3.30
2019-06-10T03:27:02.681Z,3.10
2019-06-10T03:29:32.750Z,3.15
2019-06-10T03:32:05.051Z,2.95
2019-06-10T03:34:41.230Z,3.20
2019-06-10T03:37:02.517Z,3.42
2019-06-10T03:39:32.269Z,3.25
2019-06-10T03:42:02.323Z,3.58
2019-06-10T03:44:33.016Z,2.90
2019-06-10T03:47:03.196Z,3.30
2019-06-10T03:49:32.650Z,3.25
2019-06-10T03:52:02.457Z,3.08
2019-06-10T03:54:32.566Z,3.50
2019-06-10T03:57:02.735Z,3.40
2019-06-10T03:59:32.431Z,3.50
2019-06-10T04:02:02.344Z,3.50
2019-06-10T04:04:32.870Z,3.67
2019-06-10T04:07:03.936Z,3.40
2019-06-10T04:09:32.966Z,3.50
2019-06-10T04:12:02.065Z,3.30
2019-06-10T04:14:32.812Z,3.20
2019-06-10T04:17:02.670Z,3.35
2019-06-10T04:19:32.731Z,3.83
2019-06-10T04:22:02.577Z,3.30
2019-06-10T04:24:32.691Z,3.52
2019-06-10T04:27:02.750Z,3.80
2019-06-10T04:29:33.036Z,3.33
2019-06-10T04:32:03.161Z,3.27
2019-06-10T04:34:33.342Z,3.77
2019-06-10T04:37:04.874Z,3.58
2019-06-10T04:39:35.451Z,3.77
2019-06-10T04:42:03.866Z,3.15
2019-06-10T04:44:32.965Z,3.52
2019-06-10T04:47:02.827Z,3.12
2019-06-10T04:49:32.731Z,4.50
2019-06-10T04:52:03.275Z,3.80
2019-06-10T04:54:33.345Z,3.65
2019-06-10T04:57:02.736Z,3.67
2019-06-10T04:59:33.617Z,3.67
2019-06-10T05:02:05.535Z,3.10
2019-06-10T05:04:32.971Z,3.50
2019-06-10T05:07:02.229Z,3.10
2019-06-10T05:09:33.613Z,3.45
2019-06-10T05:12:03.060Z,3.42
2019-06-10T05:14:33.383Z,3.37
2019-06-10T05:17:02.187Z,3.45
2019-06-10T05:19:33.515Z,2.87
2019-06-10T05:22:03.150Z,2.90
2019-06-10T05:24:34.208Z,2.83
2019-06-10T05:27:02.178Z,3.25
2019-06-10T05:29:34.092Z,3.12
2019-06-10T05:32:02.636Z,3.55
2019-06-10T05:34:34.511Z,3.60
2019-06-10T05:37:02.831Z,3.10
2019-06-10T05:39:34.741Z,3.10
2019-06-10T05:42:03.309Z,3.10
2019-06-10T05:44:34.436Z,3.42
2019-06-10T05:47:04.103Z,3.20
2019-06-10T05:49:34.279Z,3.20
2019-06-10T05:52:04.231Z,3.17
2019-06-10T05:54:34.009Z,3.27
2019-06-10T05:57:03.092Z,3.05
2019-06-10T05:59:34.087Z,3.55
2019-06-10T06:02:02.352Z,3.35
2019-06-10T06:04:33.031Z,3.17
2019-06-10T06:07:02.388Z,3.42
2019-06-10T06:09:33.517Z,3.40
2019-06-10T06:12:02.501Z,3.85
2019-06-10T06:14:32.238Z,3.10
2019-06-10T06:17:02.226Z,3.27
2019-06-10T06:19:35.020Z,3.50
2019-06-10T06:22:02.339Z,3.47
2019-06-10T06:24:33.915Z,3.02
2019-06-10T06:27:03.785Z,3.37
2019-06-10T06:29:36.634Z,2.92
2019-06-10T06:32:04.799Z,3.12
2019-06-10T06:34:35.429Z,3.37
2019-06-10T06:37:03.688Z,3.25
2019-06-10T06:39:35.502Z,3.33
2019-06-10T06:42:05.956Z,3.42
2019-06-10T06:44:37.322Z,3.30
2019-06-10T06:47:06.135Z,3.10
2019-06-10T06:49:37.100Z,3.37
2019-06-10T06:52:07.095Z,3.22
2019-06-10T06:54:36.557Z,3.17
2019-06-10T06:57:05.920Z,2.85
2019-06-10T06:59:37.298Z,3.25
2019-06-10T07:02:06.883Z,3.17
2019-06-10T07:04:35.890Z,2.87
2019-06-10T07:07:06.635Z,2.80
2019-06-10T07:09:37.330Z,3.00
2019-06-10T07:12:07.836Z,3.27
2019-06-10T07:14:39.295Z,3.35
2019-06-10T07:17:12.384Z,3.65
2019-06-10T07:19:42.101Z,3.37
2019-06-10T07:22:13.471Z,3.75
2019-06-10T07:24:47.350Z,3.33
2019-06-10T07:27:13.132Z,3.40
2019-06-10T07:29:47.009Z,3.80
2019-06-10T07:32:12.594Z,3.58
2019-06-10T07:34:44.138Z,3.33
2019-06-10T07:37:13.045Z,3.02
2019-06-10T07:39:44.004Z,3.10
2019-06-10T07:42:13.625Z,3.58
2019-06-10T07:44:44.025Z,3.35
2019-06-10T07:47:12.834Z,3.05
2019-06-10T07:49:43.997Z,3.05
2019-06-10T07:52:16.545Z,2.95
2019-06-10T07:54:43.997Z,3.03
2019-06-10T07:57:13.295Z,3.22
2019-06-10T07:59:44.548Z,3.22
2019-06-10T08:02:12.457Z,3.30
2019-06-10T08:04:45.556Z,3.00
2019-06-10T08:07:12.918Z,2.72
2019-06-10T08:09:43.847Z,3.10
2019-06-10T08:12:12.792Z,2.80
2019-06-10T08:14:45.313Z,3.08
2019-06-10T08:17:13.484Z,3.10
2019-06-10T08:19:49.024Z,3.05
2019-06-10T08:22:29.891Z,2.83
2019-06-10T08:24:45.246Z,3.00
2019-06-10T08:27:15.694Z,3.25
2019-06-10T08:29:48.031Z,2.90
2019-06-10T08:32:17.337Z,2.80
2019-06-10T08:34:48.097Z,3.22
2019-06-10T08:37:16.868Z,2.87
2019-06-10T08:39:46.309Z,3.05
2019-06-10T08:42:15.122Z,3.10
2019-06-10T08:44:45.600Z,3.45
2019-06-10T08:47:13.110Z,3.45
2019-06-10T08:49:44.057Z,3.35
2019-06-10T08:52:12.825Z,3.30
2019-06-10T08:54:46.057Z,2.95
2019-06-10T08:57:12.932Z,3.45
2019-06-10T08:59:46.066Z,3.57
2019-06-10T09:02:14.494Z,3.27
2019-06-10T09:04:46.015Z,3.37
2019-06-10T09:07:14.357Z,3.45
2019-06-10T09:09:45.745Z,3.37
2019-06-10T09:12:27.970Z,3.00
2019-06-10T09:14:46.791Z,3.00
2019-06-10T09:17:16.175Z,3.35
2019-06-10T09:19:48.804Z,2.80
2019-06-10T09:22:16.110Z,3.12
2019-06-10T09:24:48.762Z,3.17
2019-06-10T09:27:16.464Z,2.72
2019-06-10T09:29:49.122Z,3.05
2019-06-10T09:32:15.091Z,2.90
2019-06-10T09:34:49.715Z,3.23
2019-06-10T09:37:13.775Z,2.98
2019-06-10T09:39:49.834Z,3.30
2019-06-10T09:42:14.457Z,3.20
2019-06-10T09:44:45.927Z,2.75
2019-06-10T09:47:15.953Z,2.95
2019-06-10T09:49:47.335Z,3.17
2019-06-10T09:52:15.351Z,3.33
2019-06-10T09:54:48.793Z,3.12
2019-06-10T09:57:13.961Z,2.80
2019-06-10T09:59:46.406Z,3.17
2019-06-10T10:02:12.758Z,3.03
2019-06-10T10:04:47.145Z,2.90
2019-06-10T10:07:12.532Z,2.98
2019-06-10T10:09:45.420Z,3.02
2019-06-10T10:12:12.310Z,2.75
2019-06-10T10:14:44.355Z,2.80
2019-06-10T10:17:12.820Z,2.52
2019-06-10T10:19:45.344Z,2.58
2019-06-10T10:22:14.007Z,2.90
2019-06-10T10:24:45.862Z,2.95
2019-06-10T10:27:15.657Z,2.80
2019-06-10T10:29:46.908Z,3.08
2019-06-10T10:32:14.449Z,3.35
2019-06-10T10:34:45.238Z,3.12
2019-06-10T10:37:13.437Z,3.12
2019-06-10T10:39:42.586Z,3.00
2019-06-10T10:42:12.630Z,3.60
2019-06-10T10:44:46.192Z,3.40
2019-06-10T10:47:12.673Z,3.77
2019-06-10T10:49:41.209Z,3.15
2019-06-10T10:52:09.722Z,3.42
2019-06-10T10:54:38.325Z,3.62
2019-06-10T10:57:06.849Z,3.25
2019-06-10T10:59:34.810Z,3.20
2019-06-10T11:02:02.693Z,3.08
2019-06-10T11:04:33.576Z,3.52
2019-06-10T11:07:03.120Z,3.08
2019-06-10T11:09:33.091Z,3.60
2019-06-10T11:12:03.487Z,3.70
2019-06-10T11:14:33.540Z,3.45
2019-06-10T11:17:02.864Z,3.37
2019-06-10T11:19:32.369Z,3.72
2019-06-10T11:22:02.826Z,3.80
2019-06-10T11:24:40.166Z,3.90
2019-06-10T11:27:03.673Z,3.83
2019-06-10T11:29:32.880Z,3.75
2019-06-10T11:32:03.211Z,3.42
2019-06-10T11:34:33.253Z,4.05
2019-06-10T11:37:02.406Z,4.15
2019-06-10T11:39:33.822Z,3.87
2019-06-10T11:42:02.895Z,3.80
2019-06-10T11:44:33.201Z,3.65
2019-06-10T11:47:03.218Z,4.12
2019-06-10T11:49:31.938Z,3.62
2019-06-10T11:52:03.063Z,3.62
2019-06-10T11:54:34.041Z,3.58
2019-06-10T11:57:02.232Z,3.67
2019-06-10T11:59:32.729Z,3.45
2019-06-10T12:02:05.562Z,3.40
2019-06-10T12:04:31.550Z,3.33
2019-06-10T12:07:02.201Z,3.10
2019-06-10T12:09:33.171Z,3.40
2019-06-10T12:12:02.374Z,3.17
2019-06-10T12:14:33.100Z,3.40
2019-06-10T12:19:34.250Z,3.20
2019-06-10T12:22:07.412Z,2.98
2019-06-10T12:24:36.276Z,3.50
2019-06-10T12:27:05.155Z,3.45
2019-06-10T12:29:33.262Z,3.60
2019-06-10T12:32:06.978Z,3.90
2019-06-10T12:34:33.427Z,3.67
2019-06-10T12:37:10.350Z,3.35
2019-06-10T12:39:31.795Z,3.70
2019-06-10T12:42:03.243Z,9.30
2019-06-10T12:44:31.330Z,3.30
2019-06-10T12:47:02.083Z,3.55
2019-06-10T12:49:32.031Z,3.22
2019-06-10T12:52:05.354Z,3.70
2019-06-10T12:54:32.687Z,3.15
2019-06-10T12:57:02.553Z,9.20
2019-06-10T12:59:32.478Z,4.28
2019-06-10T13:02:10.564Z,3.17
2019-06-10T13:04:32.952Z,2.98
2019-06-10T13:07:05.744Z,3.60
2019-06-10T13:09:33.618Z,3.65
2019-06-10T13:12:02.040Z,3.75
2019-06-10T13:14:32.408Z,4.08
2019-06-10T13:17:02.538Z,6.22
2019-06-10T13:19:34.162Z,3.60
2019-06-10T13:22:02.079Z,3.62
2019-06-10T13:24:33.763Z,3.45
2019-06-10T13:27:06.257Z,3.90
2019-06-10T13:29:34.107Z,4.03
2019-06-10T13:32:03.227Z,3.55
2019-06-10T13:34:32.537Z,3.40
2019-06-10T13:37:03.915Z,3.83
2019-06-10T13:39:33.784Z,3.83
2019-06-10T13:42:05.022Z,3.40
2019-06-10T13:44:32.254Z,3.72
2019-06-10T13:47:02.204Z,4.10
2019-06-10T13:49:33.088Z,3.92
2019-06-10T13:52:05.846Z,3.77
2019-06-10T13:54:33.182Z,3.80
2019-06-10T13:57:04.996Z,3.50
2019-06-10T13:59:34.137Z,4.28
2019-06-10T14:02:05.118Z,4.47
2019-06-10T14:04:33.511Z,5.08
2019-06-10T14:07:07.434Z,4.83
2019-06-10T14:09:35.540Z,3.37
2019-06-10T14:12:06.058Z,4.17
2019-06-10T14:14:35.718Z,4.05
2019-06-10T14:17:05.622Z,3.65
2019-06-10T14:19:33.731Z,3.62
2019-06-10T14:22:04.886Z,4.17
2019-06-10T14:24:33.715Z,3.67
2019-06-10T14:27:03.300Z,3.98
2019-06-10T14:29:32.846Z,3.70
2019-06-10T14:32:02.600Z,4.45
2019-06-10T14:34:32.722Z,6.65
2019-06-10T14:37:03.725Z,4.15
2019-06-10T14:39:35.882Z,6.75
2019-06-10T14:42:06.921Z,4.47
2019-06-10T14:44:35.188Z,9.05
2019-06-10T14:47:03.081Z,32.17
2019-06-10T14:49:33.025Z,4.40
2019-06-10T14:52:02.737Z,11.45
2019-06-10T14:54:33.019Z,4.55
2019-06-10T14:57:02.668Z,8.50
2019-06-10T14:59:32.292Z,7.58
2019-06-10T15:02:02.792Z,4.42
2019-06-10T15:04:33.223Z,6.45
2019-06-10T15:07:02.947Z,11.93
2019-06-10T15:09:33.331Z,7.33
2019-06-10T15:12:02.751Z,29.35
2019-06-10T15:14:32.390Z,9.35
2019-06-10T15:17:02.755Z,4.70
2019-06-10T15:19:33.247Z,23.87
2019-06-10T15:22:03.229Z,6.78
2019-06-10T15:24:33.439Z,5.80
2019-06-10T15:27:10.108Z,6.80
2019-06-10T15:29:32.807Z,5.50
2019-06-10T15:32:10.526Z,6.40
2019-06-10T15:34:35.257Z,5.40
2019-06-10T15:37:03.385Z,6.33
2019-06-10T15:39:33.313Z,4.72
2019-06-10T15:42:05.506Z,5.85
2019-06-10T15:44:48.521Z,5.72
2019-06-10T15:47:05.184Z,9.20
2019-06-10T15:49:33.094Z,5.50
2019-06-10T15:52:03.253Z,5.70
2019-06-10T15:54:33.341Z,5.22
2019-06-10T15:57:05.068Z,4.97
2019-06-10T15:59:35.313Z,5.33
2019-06-10T16:02:03.945Z,5.42
2019-06-10T16:04:35.102Z,6.17
2019-06-10T16:07:02.936Z,5.67
2019-06-10T16:09:32.179Z,5.87
2019-06-10T16:12:02.891Z,6.15
2019-06-10T16:14:33.016Z,6.05
2019-06-10T16:17:02.985Z,6.50
2019-06-10T16:19:32.854Z,6.45
2019-06-10T16:22:03.226Z,6.67
2019-06-10T16:24:33.234Z,7.17
2019-06-10T16:27:03.179Z,7.37
2019-06-10T16:29:33.295Z,6.95
2019-06-10T16:32:02.742Z,6.70
2019-06-10T16:34:32.662Z,6.92
2019-06-10T16:37:02.517Z,8.58
2019-06-10T16:39:32.590Z,7.30
2019-06-10T16:42:03.058Z,8.45
2019-06-10T16:44:32.805Z,8.83
2019-06-10T16:47:03.030Z,8.78
2019-06-10T16:49:32.738Z,8.85
2019-06-10T16:52:02.856Z,6.97
2019-06-10T16:54:33.032Z,8.53
2019-06-10T16:57:03.867Z,8.73
2019-06-10T16:59:32.967Z,8.33
2019-06-10T17:02:02.256Z,8.45
2019-06-10T17:04:33.137Z,8.55
2019-06-10T17:07:02.206Z,7.97
2019-06-10T17:09:32.670Z,9.50
2019-06-10T17:12:02.265Z,9.00
2019-06-10T17:14:33.645Z,8.40
2019-06-10T17:17:03.865Z,7.53
2019-06-10T17:19:33.309Z,8.68
2019-06-10T17:22:02.260Z,8.78
2019-06-10T17:24:31.387Z,8.05
2019-06-10T17:27:02.777Z,7.65
2019-06-10T17:29:33.263Z,8.30
2019-06-10T17:32:03.006Z,8.05
2019-06-10T17:34:33.627Z,8.38
2019-06-10T17:37:03.099Z,7.75
2019-06-10T17:39:32.066Z,7.70
2019-06-10T17:42:00.693Z,9.33
2019-06-10T17:44:31.146Z,8.30
2019-06-10T17:47:02.312Z,9.10
2019-06-10T17:49:33.213Z,8.55
2019-06-10T17:52:02.760Z,7.87
2019-06-10T17:54:32.507Z,8.48
2019-06-10T17:57:02.617Z,7.70
2019-06-10T17:59:33.603Z,7.33
2019-06-10T18:02:03.110Z,7.90
2019-06-10T18:04:31.584Z,7.95
2019-06-10T18:07:02.438Z,7.62
2019-06-10T18:09:34.710Z,7.72
2019-06-10T18:12:02.518Z,7.67
2019-06-10T18:14:34.277Z,7.65
2019-06-10T18:17:02.079Z,7.10
2019-06-10T18:19:34.185Z,8.05
2019-06-10T18:22:02.903Z,8.40
2019-06-10T18:24:31.109Z,8.25
2019-06-10T18:27:02.144Z,8.35
2019-06-10T18:29:33.634Z,7.90
2019-06-10T18:32:03.573Z,8.03
2019-06-10T18:34:34.626Z,8.15
2019-06-10T18:37:02.822Z,9.23
2019-06-10T18:39:33.554Z,8.13
2019-06-10T18:42:03.191Z,8.40
2019-06-10T18:44:34.082Z,8.28
2019-06-10T18:47:02.750Z,8.45
2019-06-10T18:49:32.969Z,8.98
2019-06-10T18:52:01.115Z,8.13
2019-06-10T18:54:32.805Z,7.97
2019-06-10T18:57:00.161Z,8.23
2019-06-10T18:59:32.159Z,7.62
2019-06-10T19:02:03.284Z,8.28
2019-06-10T19:04:31.083Z,7.50
2019-06-10T19:07:00.096Z,7.92
2019-06-10T19:09:28.999Z,7.92
2019-06-10T19:11:59.786Z,7.92
2019-06-10T19:14:29.329Z,7.45
2019-06-10T19:16:57.995Z,7.87
2019-06-10T19:19:26.662Z,8.55
2019-06-10T19:22:05.420Z,8.70
2019-06-10T19:24:24.814Z,8.13
2019-06-10T19:26:53.443Z,8.10
2019-06-10T19:29:30.769Z,7.75
2019-06-10T19:31:53.023Z,7.75
2019-06-10T19:34:22.488Z,8.03
2019-06-10T19:36:52.177Z,7.45
2019-06-10T19:39:22.264Z,7.75
2019-06-10T19:41:52.989Z,7.75
2019-06-10T19:44:20.613Z,7.33
2019-06-10T19:46:52.236Z,7.90
2019-06-10T19:49:20.266Z,7.83
2019-06-10T19:51:48.681Z,8.05
2019-06-10T19:54:18.313Z,7.65
2019-06-10T19:56:46.743Z,8.10
2019-06-10T19:59:17.102Z,7.72
2019-06-10T20:01:48.174Z,7.67
2019-06-10T20:04:17.995Z,8.15
2019-06-10T20:06:50.434Z,7.80
2019-06-10T20:09:15.059Z,8.25
2019-06-10T20:11:46.966Z,8.63
2019-06-10T20:14:14.705Z,8.55
2019-06-10T20:16:45.667Z,8.67
2019-06-10T20:19:13.575Z,9.30
2019-06-10T20:21:43.507Z,7.85
2019-06-10T20:24:12.439Z,9.05
2019-06-10T20:26:43.275Z,8.18
2019-06-10T20:29:12.623Z,8.48
2019-06-10T20:31:45.396Z,9.53
2019-06-10T20:34:13.267Z,9.93
2019-06-10T20:36:43.459Z,9.00
2019-06-10T20:39:12.507Z,9.60
2019-06-10T20:41:44.292Z,7.85
2019-06-10T20:44:12.960Z,8.67
2019-06-10T20:46:43.067Z,8.28
2019-06-10T20:49:13.641Z,8.53
2019-06-10T20:51:57.775Z,8.50
2019-06-10T20:54:13.775Z,8.13
2019-06-10T20:56:45.527Z,8.08
2019-06-10T20:59:14.309Z,7.90
2019-06-10T21:01:44.456Z,7.53
2019-06-10T21:04:13.284Z,8.30
2019-06-10T21:06:43.382Z,7.77
2019-06-10T21:09:13.485Z,8.28
2019-06-10T21:11:45.138Z,8.35
2019-06-10T21:14:12.311Z,8.23
2019-06-10T21:16:42.048Z,8.73
2019-06-10T21:19:10.915Z,8.15
2019-06-10T21:21:42.811Z,7.85
2019-06-10T21:24:12.660Z,8.50
2019-06-10T21:26:43.331Z,8.90
2019-06-10T21:29:12.897Z,10.72
2019-06-10T21:31:41.770Z,10.50
2019-06-10T21:34:12.593Z,11.78
2019-06-10T21:36:41.273Z,10.90
2019-06-10T21:39:09.718Z,11.48
2019-06-10T21:41:38.238Z,10.78
2019-06-10T21:44:06.893Z,9.90
2019-06-10T21:46:54.386Z,12.40
2019-06-10T21:49:23.880Z,12.07
2019-06-10T21:51:56.866Z,9.25
2019-06-10T21:54:22.538Z,10.72
2019-06-10T21:56:54.070Z,10.95
2019-06-10T21:59:21.106Z,10.38
2019-06-10T22:01:51.213Z,9.93
2019-06-10T22:04:22.490Z,10.75
2019-06-10T22:06:55.489Z,10.82
2019-06-10T22:09:21.547Z,10.75
2019-06-10T22:11:52.938Z,12.05
2019-06-10T22:14:22.415Z,13.08
2019-06-10T22:16:53.340Z,11.05
2019-06-10T22:19:23.134Z,11.43
2019-06-10T22:21:53.205Z,10.05
2019-06-10T22:24:22.802Z,8.38
2019-06-10T22:26:53.172Z,10.23
2019-06-10T22:29:23.125Z,9.85
2019-06-10T22:31:53.633Z,9.15
2019-06-10T22:34:22.876Z,11.25
2019-06-10T22:36:53.825Z,11.08
2019-06-10T22:39:22.349Z,10.08
2019-06-10T22:41:54.104Z,10.45
2019-06-10T22:44:24.342Z,10.90
2019-06-10T22:46:54.050Z,10.65
2019-06-10T22:49:23.725Z,11.38
2019-06-10T22:51:54.478Z,10.63
2019-06-10T22:54:21.314Z,11.75
2019-06-10T22:56:49.911Z,11.50
2019-06-10T22:59:18.395Z,10.70
2019-06-10T23:01:46.915Z,11.25
2019-06-10T23:04:15.460Z,11.88
2019-06-10T23:06:44.082Z,10.75
2019-06-10T23:09:13.732Z,10.53
2019-06-10T23:11:44.624Z,10.53
2019-06-10T23:14:12.503Z,10.95
2019-06-10T23:16:42.758Z,10.90
2019-06-10T23:19:13.003Z,11.30
2019-06-10T23:21:42.444Z,10.40
2019-06-10T23:24:14.667Z,9.98
2019-06-10T23:26:43.267Z,10.15
2019-06-10T23:29:12.312Z,9.60
2019-06-10T23:31:51.735Z,8.95
2019-06-10T23:34:11.668Z,9.73
2019-06-10T23:36:43.207Z,9.20
2019-06-10T23:39:13.607Z,10.38
2019-06-10T23:41:44.013Z,10.50
2019-06-10T23:44:12.681Z,11.28
2019-06-10T23:46:42.599Z,10.35
2019-06-10T23:49:12.281Z,9.95
2019-06-10T23:51:42.301Z,9.05
2019-06-10T23:54:12.648Z,11.03
2019-06-10T23:56:42.839Z,10.30
2019-06-10T23:59:12.040Z,10.88
